createdAt,value
2023-04-12T00:00:16.862Z,98.3
2023-04-12T00:01:16.849Z,98.3
2023-04-12T00:02:17.080Z,98.7
2023-04-12T00:03:17.208Z,98.5
2023-04-12T00:04:17.421Z,98.6
2023-04-12T00:05:17.241Z,98.6
2023-04-12T00:06:16.915Z,98.6
2023-04-12T00:07:16.914Z,98.7
2023-04-12T00:08:17.008Z,98.7
2023-04-12T00:09:16.958Z,98.5
2023-04-12T00:10:17.001Z,98.5
2023-04-12T00:11:16.968Z,98.5
2023-04-12T00:12:16.981Z,98.5
2023-04-12T00:13:17.004Z,98.3
2023-04-12T00:14:17.033Z,98.4
2023-04-12T00:15:17.020Z,98.3
2023-04-12T00:16:17.334Z,98.3
2023-04-12T00:17:17.027Z,98.4
2023-04-12T00:18:17.038Z,98.6
2023-04-12T00:19:17.056Z,98.5
2023-04-12T00:20:17.070Z,98.7
2023-04-12T00:21:17.279Z,98.4
2023-04-12T00:22:17.108Z,98.3
2023-04-12T00:23:17.108Z,98.3
2023-04-12T00:41:17.594Z,98.5
2023-04-12T00:42:17.320Z,98.3
2023-04-12T00:43:17.315Z,98.2
2023-04-12T00:44:17.321Z,98.2
2023-04-12T00:45:17.339Z,98.2
2023-04-12T00:46:17.497Z,98.3
2023-04-12T00:47:17.366Z,98.2
2023-04-12T00:48:17.350Z,98.2
2023-04-12T00:49:17.357Z,98.2
2023-04-12T00:50:17.383Z,98.2
2023-04-12T00:51:17.378Z,98.2
2023-04-12T00:52:17.414Z,98.4
2023-04-12T00:53:17.473Z,98.2
2023-04-12T00:54:17.604Z,98.3
2023-04-12T00:55:17.453Z,98.2
2023-04-12T00:56:17.442Z,98.2
2023-04-12T00:57:17.461Z,98.4
2023-04-12T00:58:17.451Z,98.4
2023-04-12T00:59:17.460Z,98.5
2023-04-12T01:00:17.482Z,98.6
2023-04-12T01:01:17.898Z,98.5
2023-04-12T01:02:18.004Z,98.4
2023-04-12T01:03:18.023Z,98.4
2023-04-12T01:04:17.511Z,98.3
2023-04-12T01:05:17.518Z,98.6
2023-04-12T01:06:17.542Z,98.2
2023-04-12T01:07:17.539Z,98.3
2023-04-12T01:08:17.569Z,98.5
2023-04-12T01:09:17.583Z,98.3
2023-04-12T01:10:17.573Z,98.2
2023-04-12T01:11:17.568Z,98.2
2023-04-12T01:12:17.582Z,98.2
2023-04-12T01:13:17.620Z,98.2
2023-04-12T01:14:17.616Z,98.3
2023-04-12T01:15:17.626Z,98.4
2023-04-12T01:16:17.929Z,98.4
2023-04-12T01:17:17.627Z,98.3
2023-04-12T01:18:17.679Z,98.4
2023-04-12T01:19:17.661Z,98.4
2023-04-12T01:20:17.691Z,98.4
2023-04-12T01:21:17.667Z,98.4
2023-04-12T01:22:17.665Z,98.4
2023-04-12T01:23:17.686Z,98.5
2023-04-12T01:24:17.702Z,98.5
2023-04-12T01:25:17.736Z,98.5
2023-04-12T01:26:17.954Z,98.6
2023-04-12T01:27:17.724Z,98.5
2023-04-12T01:28:17.739Z,98.4
2023-04-12T01:29:17.751Z,98.6
2023-04-12T01:30:17.769Z,98.5
2023-04-12T01:31:18.003Z,98.5
2023-04-12T01:32:17.779Z,98.6
2023-04-12T01:33:17.806Z,98.7
2023-04-12T01:34:17.808Z,98.8
2023-04-12T01:35:17.974Z,98.8
2023-04-12T01:36:17.810Z,98.7
2023-04-12T01:37:17.816Z,98.7
2023-04-12T01:38:17.831Z,98.7
2023-04-12T01:39:17.849Z,98.7
2023-04-12T01:40:17.865Z,98.8
2023-04-12T01:41:17.877Z,98.8
2023-04-12T01:42:17.871Z,98.7
2023-04-12T01:43:17.880Z,98.7
2023-04-12T01:44:17.899Z,98.7
2023-04-12T01:45:17.924Z,98.6
2023-04-12T01:46:18.060Z,98.8
2023-04-12T01:47:17.913Z,98.7
2023-04-12T01:48:17.937Z,98.8
2023-04-12T01:49:17.972Z,98.6
2023-04-12T01:50:17.983Z,98.7
2023-04-12T01:51:17.958Z,98.7
2023-04-12T01:52:18.010Z,98.7
2023-04-12T01:53:18.016Z,98.7
2023-04-12T01:54:18.018Z,98.9
2023-04-12T01:55:18.025Z,98.7
2023-04-12T01:56:18.025Z,98.7
2023-04-12T01:57:18.030Z,98.7
2023-04-12T01:58:18.055Z,98.6
2023-04-12T01:59:18.074Z,98.7
2023-04-12T02:00:18.069Z,98.7
2023-04-12T02:01:18.368Z,98.7
2023-04-12T02:02:18.315Z,98.9
2023-04-12T02:03:18.854Z,98.8
2023-04-12T02:04:18.207Z,98.8
2023-04-12T02:05:18.104Z,98.7
2023-04-12T02:06:18.133Z,98.7
2023-04-12T02:07:18.119Z,98.7
2023-04-12T02:08:18.139Z,98.8
2023-04-12T02:09:18.157Z,98.8
2023-04-12T02:10:18.142Z,98.7
2023-04-12T02:11:18.173Z,98.7
2023-04-12T02:12:18.172Z,98.7
2023-04-12T02:13:18.447Z,98.6
2023-04-12T02:14:18.189Z,98.5
2023-04-12T02:15:18.197Z,98.6
2023-04-12T02:16:18.318Z,98.5
2023-04-12T02:17:18.242Z,98.7
2023-04-12T02:18:18.234Z,98.7
2023-04-12T02:19:18.253Z,98.7
2023-04-12T02:20:18.284Z,98.6
2023-04-12T02:21:18.302Z,98.6
2023-04-12T02:22:18.302Z,98.6
2023-04-12T02:23:18.338Z,98.5
2023-04-12T02:24:18.347Z,98.4
2023-04-12T02:25:18.365Z,98.6
2023-04-12T02:26:18.345Z,98.6
2023-04-12T02:27:18.337Z,98.5
2023-04-12T02:28:18.356Z,98.5
2023-04-12T02:29:18.390Z,98.5
2023-04-12T02:30:18.392Z,98.5
2023-04-12T02:31:18.455Z,98.5
2023-04-12T02:32:18.404Z,98.6
2023-04-12T02:33:18.413Z,98.6
2023-04-12T02:34:18.613Z,98.6
2023-04-12T02:35:18.601Z,98.6
2023-04-12T02:36:18.470Z,98.7
2023-04-12T02:37:18.478Z,98.7
2023-04-12T02:38:18.497Z,98.7
2023-04-12T02:39:18.973Z,98.7
2023-04-12T02:40:18.497Z,98.7
2023-04-12T02:41:18.493Z,98.7
2023-04-12T02:42:18.495Z,98.7
2023-04-12T02:43:18.503Z,98.7
2023-04-12T02:44:18.538Z,98.7
2023-04-12T02:45:18.544Z,98.7
2023-04-12T02:46:18.627Z,98.7
2023-04-12T02:47:18.562Z,98.8
2023-04-12T02:48:18.590Z,98.7
2023-04-12T02:49:19.543Z,98.8
2023-04-12T02:50:18.612Z,98.7
2023-04-12T02:51:18.628Z,98.7
2023-04-12T02:52:18.619Z,98.7
2023-04-12T02:53:18.640Z,98.7
2023-04-12T02:54:18.628Z,98.7
2023-04-12T02:55:18.718Z,98.7
2023-04-12T02:56:18.656Z,98.7
2023-04-12T02:57:18.664Z,98.8
2023-04-12T02:58:18.651Z,98.7
2023-04-12T02:59:18.672Z,98.6
2023-04-12T03:00:18.675Z,98.7
2023-04-12T03:01:18.827Z,98.6
2023-04-12T03:02:18.819Z,98.5
2023-04-12T03:03:19.471Z,98.6
2023-04-12T03:04:19.202Z,98.4
2023-04-12T03:05:18.744Z,98.5
2023-04-12T03:06:18.772Z,98.5
2023-04-12T03:07:18.766Z,98.5
2023-04-12T03:08:18.792Z,98.5
2023-04-12T03:09:18.801Z,98.4
2023-04-12T03:10:18.802Z,98.4
2023-04-12T03:11:18.808Z,98.4
2023-04-12T03:12:18.824Z,98.4
2023-04-12T03:13:18.870Z,98.3
2023-04-12T03:14:18.865Z,98.3
2023-04-12T03:15:18.876Z,98.3
2023-04-12T03:16:18.975Z,98.3
2023-04-12T03:17:18.891Z,98.2
2023-04-12T03:18:18.893Z,98.3
2023-04-12T03:19:18.931Z,98.3
2023-04-12T03:20:18.911Z,98.3
2023-04-12T03:21:18.937Z,98.3
2023-04-12T03:22:18.932Z,98.2
2023-04-12T03:23:18.937Z,98.3
2023-04-12T03:24:18.942Z,98.3
2023-04-12T03:25:18.972Z,98.3
2023-04-12T03:26:18.968Z,98.4
2023-04-12T03:27:18.989Z,98.4
2023-04-12T03:28:18.977Z,98.4
2023-04-12T03:29:19.001Z,98.4
2023-04-12T03:30:18.991Z,98.5
2023-04-12T03:31:19.175Z,98.5
2023-04-12T03:32:19.060Z,98.5
2023-04-12T03:33:19.041Z,98.5
2023-04-12T03:34:19.036Z,98.5
2023-04-12T03:35:19.271Z,98.5
2023-04-12T03:36:19.067Z,98.5
2023-04-12T03:37:19.242Z,98.4
2023-04-12T03:38:19.083Z,98.4
2023-04-12T03:39:19.095Z,98.5
2023-04-12T03:40:19.108Z,98.4
2023-04-12T03:41:19.112Z,98.5
2023-04-12T03:42:34.046Z,98.5
2023-04-12T03:43:19.148Z,98.5
2023-04-12T03:44:19.160Z,98.5
2023-04-12T03:45:19.204Z,98.6
2023-04-12T03:46:19.303Z,98.5
2023-04-12T03:47:19.198Z,98.5
2023-04-12T03:48:19.209Z,98.5
2023-04-12T03:49:19.313Z,98.6
2023-04-12T03:50:19.230Z,98.5
2023-04-12T03:51:19.246Z,98.5
2023-04-12T03:52:19.248Z,98.5
2023-04-12T03:53:19.260Z,98.5
2023-04-12T03:54:19.290Z,98.5
2023-04-12T03:55:19.277Z,98.5
2023-04-12T03:56:19.295Z,98.5
2023-04-12T03:57:19.550Z,98.6
2023-04-12T03:58:19.329Z,98.6
2023-04-12T03:59:19.323Z,98.6
2023-04-12T04:00:19.349Z,98.6
2023-04-12T04:01:19.352Z,98.6
2023-04-12T04:02:19.602Z,98.6
2023-04-12T04:03:19.646Z,98.6
2023-04-12T04:04:19.800Z,98.6
2023-04-12T04:05:19.507Z,98.6
2023-04-12T04:06:19.392Z,98.5
2023-04-12T04:07:19.389Z,98.5
2023-04-12T04:08:19.418Z,98.5
2023-04-12T04:09:19.416Z,98.4
2023-04-12T04:10:19.449Z,98.4
2023-04-12T04:11:19.446Z,98.4
2023-04-12T04:12:19.452Z,98.4
2023-04-12T04:13:19.649Z,98.4
2023-04-12T04:14:19.479Z,98.4
2023-04-12T04:15:19.502Z,98.4
2023-04-12T04:16:19.782Z,98.4
2023-04-12T04:17:19.639Z,98.4
2023-04-12T04:18:19.524Z,98.4
2023-04-12T04:19:19.545Z,98.3
2023-04-12T04:20:19.545Z,98.4
2023-04-12T04:21:19.599Z,98.4
2023-04-12T04:22:19.567Z,98.4
2023-04-12T04:23:19.604Z,98.4
2023-04-12T04:24:19.596Z,98.3
2023-04-12T04:25:19.602Z,98.2
2023-04-12T04:26:19.658Z,98.3
2023-04-12T04:27:19.650Z,98.2
2023-04-12T04:28:19.657Z,98.3
2023-04-12T04:29:19.637Z,98.3
2023-04-12T04:30:19.660Z,98.3
2023-04-12T04:31:19.749Z,98.3
2023-04-12T04:32:19.686Z,98.3
2023-04-12T04:33:19.706Z,98.2
2023-04-12T04:34:19.747Z,98.2
2023-04-12T04:35:19.837Z,98.2
2023-04-12T04:36:19.725Z,98.2
2023-04-12T04:37:19.743Z,98.2
2023-04-12T04:38:19.759Z,98.2
2023-04-12T04:39:19.757Z,98.1
2023-04-12T04:40:19.781Z,98.1
2023-04-12T04:41:19.802Z,98.1
2023-04-12T04:42:19.801Z,98.1
2023-04-12T04:43:19.804Z,98.0
2023-04-12T04:44:19.825Z,98.0
2023-04-12T04:45:19.832Z,98.0
2023-04-12T04:46:19.929Z,98.0
2023-04-12T04:47:19.840Z,97.9
2023-04-12T04:48:19.871Z,97.9
2023-04-12T04:49:19.874Z,97.9
2023-04-12T04:50:19.933Z,97.8
2023-04-12T04:51:19.890Z,97.8
2023-04-12T04:52:19.912Z,97.7
2023-04-12T04:53:19.943Z,97.7
2023-04-12T04:54:19.943Z,97.6
2023-04-12T04:55:19.992Z,97.5
2023-04-12T04:56:19.964Z,97.6
2023-04-12T04:57:19.976Z,97.5
2023-04-12T04:58:19.987Z,97.5
2023-04-12T04:59:19.977Z,97.5
2023-04-12T05:00:20.019Z,97.5
2023-04-12T05:01:20.111Z,97.4
2023-04-12T05:02:20.150Z,97.4
2023-04-12T05:03:20.448Z,97.4
2023-04-12T05:04:20.210Z,97.3
2023-04-12T05:05:20.063Z,97.4
2023-04-12T05:06:20.069Z,97.2
2023-04-12T05:07:20.065Z,97.2
2023-04-12T05:08:20.069Z,97.1
2023-04-12T05:09:20.078Z,97.1
2023-04-12T05:10:20.103Z,97.1
2023-04-12T05:11:20.086Z,97.1
2023-04-12T05:12:20.116Z,97.1
2023-04-12T05:13:20.116Z,96.9
2023-04-12T05:14:23.163Z,96.9
2023-04-12T05:15:20.161Z,97.0
2023-04-12T05:16:20.278Z,96.9
2023-04-12T05:17:20.477Z,96.9
2023-04-12T05:18:20.179Z,96.9
2023-04-12T05:19:20.206Z,97.0
2023-04-12T05:20:20.215Z,96.9
2023-04-12T05:21:20.224Z,96.8
2023-04-12T05:22:20.282Z,96.9
2023-04-12T05:23:20.242Z,96.9
2023-04-12T05:24:20.268Z,96.8
2023-04-12T05:25:20.312Z,96.9
2023-04-12T05:26:20.265Z,96.8
2023-04-12T05:27:20.275Z,96.8
2023-04-12T05:28:20.298Z,96.9
2023-04-12T05:29:20.304Z,96.9
2023-04-12T05:30:20.321Z,96.9
2023-04-12T05:31:20.774Z,96.8
2023-04-12T05:32:20.543Z,96.8
2023-04-12T05:33:20.329Z,96.8
2023-04-12T05:34:20.335Z,96.7
2023-04-12T05:35:20.463Z,96.6
2023-04-12T05:36:20.343Z,96.5
2023-04-12T05:37:20.463Z,96.5
2023-04-12T05:38:20.391Z,96.5
2023-04-12T05:39:20.981Z,96.5
2023-04-12T05:40:20.404Z,96.3
2023-04-12T05:41:20.392Z,96.4
2023-04-12T05:42:20.415Z,96.3
2023-04-12T05:43:20.443Z,96.4
2023-04-12T05:44:20.430Z,96.3
2023-04-12T05:45:20.427Z,96.4
2023-04-12T05:46:20.653Z,96.2
2023-04-12T05:47:20.471Z,96.2
2023-04-12T05:48:20.471Z,96.2
2023-04-12T05:49:20.492Z,96.1
2023-04-12T05:50:20.487Z,96.1
2023-04-12T05:51:41.558Z,96.3
2023-04-12T05:52:20.496Z,96.1
2023-04-12T05:53:20.534Z,95.9
2023-04-12T05:54:20.574Z,96.0
2023-04-12T05:55:20.546Z,96.0
2023-04-12T05:56:20.550Z,96.0
2023-04-12T05:57:20.574Z,96.0
2023-04-12T05:58:20.558Z,96.1
2023-04-12T05:59:20.570Z,95.8
2023-04-12T06:00:20.609Z,95.9
2023-04-12T06:01:20.600Z,96.0
2023-04-12T06:02:20.902Z,96.1
2023-04-12T06:03:21.057Z,96.0
2023-04-12T06:04:21.200Z,95.9
2023-04-12T06:05:20.852Z,95.6
2023-04-12T06:06:20.659Z,95.7
2023-04-12T06:07:20.675Z,95.4
2023-04-12T06:08:20.681Z,95.5
2023-04-12T06:09:20.698Z,95.7
2023-04-12T06:10:20.721Z,95.7
2023-04-12T06:11:20.730Z,95.3
2023-04-12T06:12:20.731Z,95.7
2023-04-12T06:13:20.755Z,95.6
2023-04-12T06:14:20.764Z,95.3
2023-04-12T06:15:20.818Z,95.5
2023-04-12T06:16:21.190Z,95.6
2023-04-12T06:17:20.804Z,95.5
2023-04-12T06:18:20.807Z,95.4
2023-04-12T06:19:20.822Z,95.5
2023-04-12T06:20:20.876Z,95.4
2023-04-12T06:21:20.882Z,95.5
2023-04-12T06:22:20.844Z,95.5
2023-04-12T06:23:20.866Z,95.7
2023-04-12T06:24:20.885Z,95.6
2023-04-12T06:25:20.873Z,95.4
2023-04-12T06:26:20.912Z,95.2
2023-04-12T06:27:21.086Z,95.4
2023-04-12T06:28:20.978Z,95.5
2023-04-12T06:29:20.930Z,95.0
2023-04-12T06:30:20.955Z,95.2
2023-04-12T06:31:21.315Z,95.0
2023-04-12T06:32:20.950Z,94.6
2023-04-12T06:33:20.992Z,94.1
2023-04-12T06:34:20.985Z,93.9
2023-04-12T06:35:20.985Z,93.7
2023-04-12T06:36:21.012Z,94.1
2023-04-12T06:37:21.081Z,94.1
2023-04-12T06:38:21.037Z,94.5
2023-04-12T06:39:21.066Z,93.9
2023-04-12T06:40:21.179Z,93.9
2023-04-12T06:41:21.062Z,93.4
2023-04-12T06:42:21.088Z,93.9
2023-04-12T06:43:21.092Z,93.7
2023-04-12T06:44:21.114Z,94.3
2023-04-12T06:45:21.106Z,93.8
2023-04-12T06:46:21.176Z,94.1
2023-04-12T06:47:21.436Z,94.3
2023-04-12T06:48:21.130Z,94.3
2023-04-12T06:49:21.200Z,94.2
2023-04-12T06:50:21.174Z,93.9
2023-04-12T06:51:21.172Z,93.9
2023-04-12T06:52:21.198Z,93.6
2023-04-12T06:53:21.215Z,93.9
2023-04-12T06:54:21.232Z,93.3
2023-04-12T06:55:21.264Z,92.6
2023-04-12T06:56:21.260Z,93.2
2023-04-12T06:57:21.273Z,93.1
2023-04-12T06:58:21.271Z,93.1
2023-04-12T06:59:21.305Z,93.5
2023-04-12T07:00:21.332Z,93.5
2023-04-12T07:01:21.917Z,93.3
2023-04-12T07:02:21.544Z,93.0
2023-04-12T07:03:21.629Z,93.0
2023-04-12T07:04:21.683Z,92.3
2023-04-12T07:05:21.377Z,93.1
2023-04-12T07:06:26.543Z,93.1
2023-04-12T07:07:21.386Z,93.2
2023-04-12T07:08:21.401Z,91.1
2023-04-12T07:09:21.402Z,92.8
2023-04-12T07:10:21.432Z,93.3
2023-04-12T07:11:23.299Z,92.5
2023-04-12T07:12:21.503Z,92.7
2023-04-12T07:13:21.454Z,92.3
2023-04-12T07:14:21.466Z,92.7
2023-04-12T07:15:21.484Z,92.7
2023-04-12T07:16:21.557Z,92.5
2023-04-12T07:17:21.693Z,92.5
2023-04-12T07:18:21.513Z,92.2
2023-04-12T07:19:21.698Z,92.7
2023-04-12T07:20:21.549Z,93.1
2023-04-12T07:21:21.540Z,93.2
2023-04-12T07:22:21.559Z,92.7
2023-04-12T07:23:21.589Z,92.2
2023-04-12T07:24:21.604Z,91.7
2023-04-12T07:25:21.649Z,93.1
2023-04-12T07:26:21.689Z,92.8
2023-04-12T07:27:21.607Z,93.0
2023-04-12T07:28:21.635Z,93.7
2023-04-12T07:29:21.640Z,92.3
2023-04-12T07:30:21.647Z,91.0
2023-04-12T07:31:21.677Z,89.9
2023-04-12T07:32:21.936Z,89.7
2023-04-12T07:33:22.261Z,88.2
2023-04-12T07:34:22.232Z,90.4
2023-04-12T07:35:21.714Z,87.4
2023-04-12T07:36:21.888Z,86.9
2023-04-12T07:37:21.738Z,85.3
2023-04-12T07:38:21.761Z,84.9
2023-04-12T07:39:21.884Z,86.5
2023-04-12T07:40:21.790Z,87.0
2023-04-12T07:41:21.789Z,83.7
2023-04-12T07:42:21.829Z,85.0
2023-04-12T07:43:21.824Z,86.5
2023-04-12T07:44:21.818Z,83.8
2023-04-12T07:45:21.846Z,85.9
2023-04-12T07:46:22.051Z,84.6
2023-04-12T07:47:21.927Z,85.9
2023-04-12T07:48:21.935Z,84.9
2023-04-12T07:49:21.905Z,85.2
2023-04-12T07:50:21.886Z,81.1
2023-04-12T07:51:21.916Z,84.6
2023-04-12T07:52:21.938Z,82.2
2023-04-12T07:53:21.997Z,83.8
2023-04-12T07:54:23.872Z,81.9
2023-04-12T07:55:22.004Z,81.0
2023-04-12T07:56:22.168Z,82.7
2023-04-12T07:57:22.003Z,80.2
2023-04-12T07:58:22.123Z,79.1
2023-04-12T07:59:21.999Z,80.8
2023-04-12T08:00:22.199Z,79.4
2023-04-12T08:01:22.028Z,79.2
2023-04-12T08:02:22.450Z,80.3
2023-04-12T08:20:38.874Z,74.7
2023-04-12T08:21:22.305Z,76.2
2023-04-12T08:22:22.310Z,73.3
2023-04-12T08:23:22.317Z,68.4
2023-04-12T08:24:22.347Z,68.6
2023-04-12T08:25:22.526Z,71.2
2023-04-12T08:26:22.384Z,71.8
2023-04-12T08:27:22.389Z,69.0
2023-04-12T08:28:22.396Z,70.8
2023-04-12T08:29:22.410Z,69.1
2023-04-12T08:30:22.610Z,68.2
2023-04-12T08:31:22.625Z,69.3
2023-04-12T08:32:22.585Z,68.2
2023-04-12T08:33:22.477Z,69.1
2023-04-12T08:34:22.524Z,65.8
2023-04-12T08:35:22.507Z,66.0
2023-04-12T08:36:22.502Z,64.4
2023-04-12T08:37:22.509Z,67.5
2023-04-12T08:38:45.338Z,67.6
2023-04-12T08:39:22.504Z,68.1
2023-04-12T08:40:22.554Z,67.6
2023-04-12T08:41:22.567Z,64.2
2023-04-12T08:42:22.595Z,64.5
2023-04-12T08:43:22.578Z,64.2
2023-04-12T08:44:22.584Z,61.0
2023-04-12T08:45:22.603Z,61.2
2023-04-12T08:46:22.776Z,62.7
2023-04-12T08:47:22.961Z,61.8
2023-04-12T08:48:22.674Z,63.7
2023-04-12T08:49:22.641Z,63.3
2023-04-12T08:50:22.666Z,63.4
2023-04-12T08:51:22.739Z,63.9
2023-04-12T08:52:22.703Z,64.2
2023-04-12T08:53:22.697Z,63.0
2023-04-12T08:54:22.721Z,63.4
2023-04-12T08:55:22.727Z,66.1
2023-04-12T08:56:22.818Z,64.2
2023-04-12T08:57:22.845Z,63.1
2023-04-12T08:58:22.795Z,63.6
2023-04-12T08:59:22.798Z,66.8
2023-04-12T09:00:22.806Z,65.1
2023-04-12T09:01:22.983Z,66.6
2023-04-12T09:02:23.574Z,66.8
2023-04-12T09:03:23.800Z,67.4
2023-04-12T09:04:23.084Z,64.3
2023-04-12T09:05:23.071Z,64.0
2023-04-12T09:06:22.874Z,65.9
2023-04-12T09:07:22.873Z,64.4
2023-04-12T09:08:22.931Z,62.3
2023-04-12T09:09:22.907Z,63.8
2023-04-12T09:10:22.936Z,63.8
2023-04-12T09:11:22.967Z,63.8
2023-04-12T09:12:22.950Z,61.8
2023-04-12T09:13:22.974Z,62.4
2023-04-12T09:14:23.020Z,62.0
2023-04-12T09:15:22.986Z,61.8
2023-04-12T09:16:23.192Z,61.1
2023-04-12T09:17:23.201Z,60.3
2023-04-12T09:18:23.044Z,61.6
2023-04-12T09:19:23.030Z,60.2
2023-04-12T09:20:23.382Z,61.4
2023-04-12T09:21:23.044Z,62.0
2023-04-12T09:22:23.062Z,65.3
2023-04-12T09:23:23.101Z,61.9
2023-04-12T09:24:23.116Z,61.8
2023-04-12T09:25:23.126Z,63.1
2023-04-12T09:26:23.116Z,63.9
2023-04-12T09:27:23.155Z,63.1
2023-04-12T09:28:23.287Z,62.3
2023-04-12T09:29:23.265Z,63.7
2023-04-12T09:30:23.199Z,61.0
2023-04-12T09:31:23.392Z,60.7
2023-04-12T09:32:23.290Z,61.5
2023-04-12T09:33:23.231Z,61.6
2023-04-12T09:34:27.966Z,63.1
2023-04-12T09:35:23.260Z,60.9
2023-04-12T09:36:23.425Z,61.0
2023-04-12T09:37:23.274Z,60.7
2023-04-12T09:38:23.304Z,59.1
2023-04-12T09:39:23.302Z,60.6
2023-04-12T09:40:23.329Z,60.2
2023-04-12T09:41:27.635Z,58.2
2023-04-12T09:42:35.038Z,60.4
2023-04-12T09:43:23.367Z,61.6
2023-04-12T09:44:23.384Z,59.3
2023-04-12T09:45:23.402Z,59.9
2023-04-12T09:46:23.645Z,58.2
2023-04-12T09:47:23.512Z,58.8
2023-04-12T09:48:23.411Z,56.4
2023-04-12T09:49:23.388Z,58.6
2023-04-12T09:50:23.469Z,57.7
2023-04-12T09:51:23.468Z,58.7
2023-04-12T09:52:23.490Z,58.8
2023-04-12T09:53:23.482Z,58.5
2023-04-12T09:54:23.682Z,59.5
2023-04-12T09:55:23.624Z,59.8
2023-04-12T09:56:23.552Z,59.2
2023-04-12T09:57:23.490Z,58.6
2023-04-12T09:58:23.522Z,58.4
2023-04-12T09:59:23.522Z,56.9
2023-04-12T10:00:23.542Z,58.8
2023-04-12T10:01:23.649Z,57.4
2023-04-12T10:02:24.219Z,57.3
2023-04-12T10:03:24.192Z,57.5
2023-04-12T10:04:24.502Z,56.7
2023-04-12T10:05:24.499Z,56.1
2023-04-12T10:06:23.639Z,55.3
2023-04-12T10:07:23.665Z,57.0
2023-04-12T10:08:23.663Z,55.7
2023-04-12T10:09:23.648Z,58.4
2023-04-12T10:10:23.744Z,57.1
2023-04-12T10:11:23.700Z,57.4
2023-04-12T10:12:23.702Z,57.3
2023-04-12T10:13:23.775Z,57.1
2023-04-12T10:14:23.795Z,56.6
2023-04-12T10:15:23.811Z,57.7
2023-04-12T10:16:23.951Z,56.0
2023-04-12T10:17:23.839Z,57.4
2023-04-12T10:18:23.867Z,58.0
2023-04-12T10:19:23.751Z,58.0
2023-04-12T10:20:29.896Z,59.5
2023-04-12T10:21:23.884Z,59.8
2023-04-12T10:22:23.901Z,58.2
2023-04-12T10:23:23.941Z,58.9
2023-04-12T10:24:23.891Z,58.3
2023-04-12T10:25:24.102Z,57.8
2023-04-12T10:26:23.991Z,57.6
2023-04-12T10:27:23.904Z,57.9
2023-04-12T10:28:23.881Z,57.4
2023-04-12T10:29:23.962Z,57.4
2023-04-12T10:30:24.014Z,57.7
2023-04-12T10:31:24.145Z,56.9
2023-04-12T10:32:24.268Z,58.1
2023-04-12T10:33:24.350Z,59.1
2023-04-12T10:34:24.009Z,58.3
2023-04-12T10:35:24.033Z,58.9
2023-04-12T10:36:24.234Z,59.7
2023-04-12T10:37:23.987Z,58.7
2023-04-12T10:38:24.036Z,59.1
2023-04-12T10:39:24.088Z,58.9
2023-04-12T10:40:24.068Z,58.4
2023-04-12T10:41:24.069Z,57.1
2023-04-12T10:42:24.113Z,57.7
2023-04-12T10:43:24.054Z,55.8
2023-04-12T10:44:24.149Z,57.1
2023-04-12T10:45:24.226Z,59.9
2023-04-12T10:46:24.296Z,60.2
2023-04-12T10:47:24.681Z,59.1
2023-04-12T10:48:24.373Z,60.6
2023-04-12T10:49:24.168Z,59.1
2023-04-12T10:50:24.228Z,58.5
2023-04-12T10:51:24.209Z,60.1
2023-04-12T10:52:24.240Z,57.1
2023-04-12T10:53:24.221Z,56.7
2023-04-12T10:54:24.172Z,60.0
2023-04-12T10:55:24.225Z,57.0
2023-04-12T10:56:24.294Z,56.2
2023-04-12T10:57:24.307Z,56.6
2023-04-12T10:58:24.317Z,59.3
2023-04-12T11:00:24.462Z,59.8
2023-04-12T11:01:24.753Z,56.7
2023-04-12T11:02:24.984Z,57.2
2023-04-12T11:03:24.896Z,59.0
2023-04-12T11:04:25.002Z,58.4
2023-04-12T11:05:24.891Z,60.0
2023-04-12T11:06:28.220Z,58.0
2023-04-12T11:07:24.438Z,61.2
2023-04-12T11:08:24.419Z,60.0
2023-04-12T11:09:24.382Z,60.4
2023-04-12T11:10:24.467Z,62.3
2023-04-12T11:11:24.419Z,64.1
2023-04-12T11:12:24.493Z,59.4
2023-04-12T11:13:24.467Z,59.9
2023-04-12T11:14:24.480Z,59.3
2023-04-12T11:15:24.528Z,59.9
2023-04-12T11:16:24.703Z,61.1
2023-04-12T11:17:25.488Z,60.8
2023-04-12T11:18:24.598Z,62.2
2023-04-12T11:19:24.551Z,64.7
2023-04-12T11:20:24.545Z,64.9
2023-04-12T11:21:24.546Z,66.2
2023-04-12T11:22:24.690Z,64.9
2023-04-12T11:23:24.505Z,64.9
2023-04-12T11:24:24.550Z,65.3
2023-04-12T11:25:24.569Z,66.2
2023-04-12T11:26:24.578Z,67.2
2023-04-12T11:27:24.558Z,67.1
2023-04-12T11:28:33.977Z,69.3
2023-04-12T11:29:24.617Z,68.7
2023-04-12T11:30:24.548Z,70.7
2023-04-12T11:31:24.627Z,70.7
2023-04-12T11:32:24.914Z,71.3
2023-04-12T11:33:24.575Z,70.7
2023-04-12T11:34:24.565Z,71.2
2023-04-12T11:35:24.577Z,72.7
2023-04-12T11:36:24.586Z,72.5
2023-04-12T11:37:24.637Z,72.1
2023-04-12T11:38:24.594Z,72.9
2023-04-12T11:39:24.609Z,71.1
2023-04-12T11:40:24.681Z,73.3
2023-04-12T11:41:24.647Z,73.5
2023-04-12T11:42:24.638Z,74.4
2023-04-12T11:43:24.635Z,73.9
2023-04-12T11:44:24.671Z,74.6
2023-04-12T11:45:24.653Z,75.4
2023-04-12T11:46:25.006Z,74.1
2023-04-12T11:47:24.967Z,74.7
2023-04-12T11:48:24.691Z,75.5
2023-04-12T11:49:24.698Z,76.0
2023-04-12T11:50:24.736Z,76.1
2023-04-12T11:51:25.294Z,75.4
2023-04-12T11:52:24.738Z,75.9
2023-04-12T11:53:24.731Z,76.4
2023-04-12T11:54:24.756Z,76.7
2023-04-12T11:55:24.757Z,76.4
2023-04-12T11:56:24.761Z,77.8
2023-04-12T11:57:24.754Z,79.1
2023-04-12T11:58:24.855Z,76.9
2023-04-12T11:59:24.867Z,79.0
2023-04-12T12:00:24.768Z,79.1
2023-04-12T12:01:24.780Z,80.3
2023-04-12T12:02:34.980Z,80.2
2023-04-12T12:03:25.803Z,79.8
2023-04-12T12:04:25.687Z,79.4
2023-04-12T12:05:25.536Z,79.9
2023-04-12T12:06:25.685Z,80.2
2023-04-12T12:07:26.061Z,80.1
2023-04-12T12:08:24.845Z,80.5
2023-04-12T12:09:24.817Z,80.8
2023-04-12T12:10:55.874Z,80.6
2023-04-12T12:11:24.867Z,80.9
2023-04-12T12:12:24.855Z,79.3
2023-04-12T12:13:24.860Z,80.4
2023-04-12T12:14:24.853Z,80.0
2023-04-12T12:15:24.874Z,79.6
2023-04-12T12:16:25.639Z,80.7
2023-04-12T12:17:25.015Z,81.1
2023-04-12T12:18:24.891Z,80.0
2023-04-12T12:19:24.893Z,79.4
2023-04-12T12:20:24.896Z,80.8
2023-04-12T12:21:25.015Z,80.4
2023-04-12T12:22:25.036Z,80.7
2023-04-12T12:23:24.904Z,80.5
2023-04-12T12:24:24.928Z,79.1
2023-04-12T12:25:24.919Z,80.8
2023-04-12T12:26:24.952Z,79.0
2023-04-12T12:27:25.166Z,79.1
2023-04-12T12:28:24.965Z,79.8
2023-04-12T12:29:24.956Z,80.6
2023-04-12T12:30:25.110Z,81.6
2023-04-12T12:31:25.032Z,81.7
2023-04-12T12:32:25.050Z,81.1
2023-04-12T12:33:46.950Z,81.8
2023-04-12T12:34:25.043Z,82.3
2023-04-12T12:35:25.002Z,81.6
2023-04-12T12:36:25.014Z,82.7
2023-04-12T12:37:25.017Z,82.0
2023-04-12T12:38:33.174Z,81.8
2023-04-12T12:39:25.037Z,83.0
2023-04-12T12:40:25.019Z,81.1
2023-04-12T12:41:25.068Z,83.0
2023-04-12T12:42:25.044Z,81.9
2023-04-12T12:43:25.049Z,82.9
2023-04-12T12:44:25.070Z,82.5
2023-04-12T12:45:25.092Z,81.6
2023-04-12T12:46:52.356Z,83.0
2023-04-12T12:47:25.364Z,83.3
2023-04-12T12:48:25.150Z,81.2
2023-04-12T12:49:25.093Z,81.4
2023-04-12T12:50:25.403Z,83.3
2023-04-12T12:51:25.092Z,83.1
2023-04-12T12:52:25.112Z,82.4
2023-04-12T12:53:25.121Z,83.4
2023-04-12T12:54:41.706Z,83.1
2023-04-12T12:55:25.138Z,83.7
2023-04-12T12:56:25.134Z,83.7
2023-04-12T12:57:25.120Z,83.6
2023-04-12T12:58:25.159Z,83.6
2023-04-12T12:59:26.431Z,83.0
2023-04-12T13:00:25.180Z,83.4
2023-04-12T13:01:25.280Z,82.3
2023-04-12T13:02:25.726Z,83.7
2023-04-12T13:03:25.962Z,83.8
2023-04-12T13:04:25.834Z,84.0
2023-04-12T13:05:25.172Z,83.2
2023-04-12T13:06:25.187Z,82.8
2023-04-12T13:07:25.215Z,83.6
2023-04-12T13:08:25.201Z,83.1
2023-04-12T13:09:25.259Z,84.3
2023-04-12T13:10:25.220Z,84.0
2023-04-12T13:11:25.249Z,83.3
2023-04-12T13:12:25.215Z,83.2
2023-04-12T13:13:25.233Z,82.8
2023-04-12T13:14:25.307Z,82.9
2023-04-12T13:15:25.304Z,82.8
2023-04-12T13:16:27.570Z,83.1
2023-04-12T13:17:25.369Z,83.2
2023-04-12T13:18:25.266Z,83.9
2023-04-12T13:19:25.269Z,83.4
2023-04-12T13:20:25.285Z,83.3
2023-04-12T13:21:25.298Z,83.2
2023-04-12T13:22:25.307Z,82.9
2023-04-12T13:23:25.319Z,82.3
2023-04-12T13:24:25.335Z,82.0
2023-04-12T13:25:25.316Z,81.9
2023-04-12T13:26:25.326Z,82.1
2023-04-12T13:27:25.345Z,81.1
2023-04-12T13:28:25.350Z,81.2
2023-04-12T13:29:25.354Z,80.7
2023-04-12T13:30:25.403Z,80.4
2023-04-12T13:31:25.543Z,79.3
2023-04-12T13:32:25.458Z,79.6
2023-04-12T13:33:25.705Z,80.1
2023-04-12T13:34:25.390Z,80.0
2023-04-12T13:35:25.404Z,79.6
2023-04-12T13:36:25.414Z,78.7
2023-04-12T13:37:25.436Z,78.6
2023-04-12T13:38:25.432Z,78.5
2023-04-12T13:39:25.458Z,79.3
2023-04-12T13:40:25.494Z,78.5
2023-04-12T13:41:25.481Z,78.1
2023-04-12T13:42:25.494Z,77.9
2023-04-12T13:43:25.485Z,77.6
2023-04-12T13:44:25.480Z,77.7
2023-04-12T13:45:25.500Z,77.6
2023-04-12T13:46:25.889Z,78.0
2023-04-12T13:47:25.593Z,77.8
2023-04-12T13:48:25.518Z,78.1
2023-04-12T13:49:25.542Z,77.3
2023-04-12T13:50:25.535Z,78.2
2023-04-12T13:51:25.557Z,79.1
2023-04-12T13:52:25.583Z,79.1
2023-04-12T13:53:25.584Z,78.9